<?xml version="1.0" encoding="UTF-8" standalone="no" ?>
<gpx xmlns="http://www.topografix.com/GPX/1/1" xmlns:xsi="http://www.w3.org/2001/XMLSchema-instance" xsi:schemaLocation="http://www.topografix.com/GPX/1/1 http://www.topografix.com/GPX/1/1/gpx.xsd" version="1.1" creator="VisuGPX - https://www.visugpx.com">
  <metadata>
    <name>Reze_Autour_8-19km</name>
    <desc><![CDATA[gnerando idor:5792578_5792726_5814453_5825877_6470772_8005623_8320604_9624624__]]></desc>
  </metadata>
  <trk>
    <name><![CDATA[Reze_IletteSevre_8.5km-5814453]]></name>
    <extensions>
      <line xmlns="http://www.topografix.com/GPX/gpx_style/0/2">
        <color>008800</color>
        <width>4</width>
      </line>
    </extensions>
    <trkseg>
      <trkpt lat="47.18219" lon="-1.52921">
        <ele>7</ele>
        <time>2023-11-11T18:51:57Z</time>
      </trkpt>
      <trkpt lat="47.18298" lon="-1.53171">
        <ele>6</ele>
        <time>2023-11-11T18:56:07Z</time>
      </trkpt>
      <trkpt lat="47.18259" lon="-1.53196">
        <ele>8</ele>
        <time>2023-11-11T18:57:04Z</time>
      </trkpt>
      <trkpt lat="47.18243" lon="-1.53225">
        <ele>10</ele>
        <time>2023-11-11T18:57:38Z</time>
      </trkpt>
      <trkpt lat="47.18241" lon="-1.53257">
        <ele>10</ele>
        <time>2023-11-11T18:58:07Z</time>
      </trkpt>
      <trkpt lat="47.18257" lon="-1.53275">
        <ele>10</ele>
        <time>2023-11-11T18:58:34Z</time>
      </trkpt>
      <trkpt lat="47.18278" lon="-1.53292">
        <ele>10</ele>
        <time>2023-11-11T18:59:06Z</time>
      </trkpt>
      <trkpt lat="47.18289" lon="-1.5331">
        <ele>10</ele>
        <time>2023-11-11T18:59:28Z</time>
      </trkpt>
      <trkpt lat="47.18307" lon="-1.53341">
        <ele>11</ele>
        <time>2023-11-11T19:00:05Z</time>
      </trkpt>
      <trkpt lat="47.18323" lon="-1.53364">
        <ele>12</ele>
        <time>2023-11-11T19:00:34Z</time>
      </trkpt>
      <trkpt lat="47.18352" lon="-1.53372">
        <ele>13</ele>
        <time>2023-11-11T19:01:14Z</time>
      </trkpt>
      <trkpt lat="47.18374" lon="-1.53399">
        <ele>15</ele>
        <time>2023-11-11T19:01:52Z</time>
      </trkpt>
      <trkpt lat="47.18393" lon="-1.53414">
        <ele>17</ele>
        <time>2023-11-11T19:02:21Z</time>
      </trkpt>
      <trkpt lat="47.18411" lon="-1.53403">
        <ele>17</ele>
        <time>2023-11-11T19:02:47Z</time>
      </trkpt>
      <trkpt lat="47.18423" lon="-1.53436">
        <ele>18</ele>
        <time>2023-11-11T19:03:21Z</time>
      </trkpt>
      <trkpt lat="47.18446" lon="-1.53478">
        <ele>17</ele>
        <time>2023-11-11T19:04:10Z</time>
      </trkpt>
      <trkpt lat="47.1848" lon="-1.53424">
        <ele>13</ele>
        <time>2023-11-11T19:05:17Z</time>
      </trkpt>
      <trkpt lat="47.18501" lon="-1.53445">
        <ele>12</ele>
        <time>2023-11-11T19:05:50Z</time>
      </trkpt>
      <trkpt lat="47.18558" lon="-1.53497">
        <ele>11</ele>
        <time>2023-11-11T19:07:20Z</time>
      </trkpt>
      <trkpt lat="47.18593" lon="-1.53522">
        <ele>11</ele>
        <time>2023-11-11T19:08:12Z</time>
      </trkpt>
      <trkpt lat="47.18631" lon="-1.53551">
        <ele>12</ele>
        <time>2023-11-11T19:09:09Z</time>
      </trkpt>
      <trkpt lat="47.18645" lon="-1.53566">
        <ele>12</ele>
        <time>2023-11-11T19:09:32Z</time>
      </trkpt>
      <trkpt lat="47.18679" lon="-1.53588">
        <ele>11</ele>
        <time>2023-11-11T19:10:22Z</time>
      </trkpt>
      <trkpt lat="47.18739" lon="-1.53676">
        <ele>9</ele>
        <time>2023-11-11T19:12:15Z</time>
      </trkpt>
      <trkpt lat="47.18795" lon="-1.53741">
        <ele>8</ele>
        <time>2023-11-11T19:13:50Z</time>
      </trkpt>
      <trkpt lat="47.18849" lon="-1.53657">
        <ele>6</ele>
        <time>2023-11-11T19:15:35Z</time>
      </trkpt>
      <trkpt lat="47.18873" lon="-1.53628">
        <ele>6</ele>
        <time>2023-11-11T19:16:16Z</time>
      </trkpt>
      <trkpt lat="47.18801" lon="-1.53599">
        <ele>7</ele>
        <time>2023-11-11T19:17:56Z</time>
      </trkpt>
      <trkpt lat="47.18723" lon="-1.53575">
        <ele>8</ele>
        <time>2023-11-11T19:19:42Z</time>
      </trkpt>
      <trkpt lat="47.18629" lon="-1.53551">
        <ele>12</ele>
        <time>2023-11-11T19:21:49Z</time>
      </trkpt>
      <trkpt lat="47.18586" lon="-1.53515">
        <ele>11</ele>
        <time>2023-11-11T19:22:55Z</time>
      </trkpt>
      <trkpt lat="47.18555" lon="-1.53495">
        <ele>11</ele>
        <time>2023-11-11T19:23:41Z</time>
      </trkpt>
      <trkpt lat="47.18505" lon="-1.53442">
        <ele>12</ele>
        <time>2023-11-11T19:25:03Z</time>
      </trkpt>
      <trkpt lat="47.18464" lon="-1.53387">
        <ele>12</ele>
        <time>2023-11-11T19:26:17Z</time>
      </trkpt>
      <trkpt lat="47.18419" lon="-1.53336">
        <ele>10</ele>
        <time>2023-11-11T19:27:33Z</time>
      </trkpt>
      <trkpt lat="47.18369" lon="-1.53284">
        <ele>8</ele>
        <time>2023-11-11T19:28:54Z</time>
      </trkpt>
      <trkpt lat="47.18334" lon="-1.53234">
        <ele>7</ele>
        <time>2023-11-11T19:29:59Z</time>
      </trkpt>
      <trkpt lat="47.18277" lon="-1.53129">
        <ele>7</ele>
        <time>2023-11-11T19:32:01Z</time>
      </trkpt>
      <trkpt lat="47.18215" lon="-1.52936">
        <ele>8</ele>
        <time>2023-11-11T19:35:15Z</time>
      </trkpt>
      <trkpt lat="47.18185" lon="-1.52795">
        <ele>8</ele>
        <time>2023-11-11T19:37:29Z</time>
      </trkpt>
      <trkpt lat="47.18173" lon="-1.52743">
        <ele>8</ele>
        <time>2023-11-11T19:38:19Z</time>
      </trkpt>
      <trkpt lat="47.18164" lon="-1.52708">
        <ele>8</ele>
        <time>2023-11-11T19:38:53Z</time>
      </trkpt>
      <trkpt lat="47.18153" lon="-1.52624">
        <ele>7</ele>
        <time>2023-11-11T19:40:10Z</time>
      </trkpt>
      <trkpt lat="47.18142" lon="-1.52577">
        <ele>6</ele>
        <time>2023-11-11T19:40:55Z</time>
      </trkpt>
      <trkpt lat="47.18118" lon="-1.52567">
        <ele>6</ele>
        <time>2023-11-11T19:41:29Z</time>
      </trkpt>
      <trkpt lat="47.18116" lon="-1.52566">
        <ele>6</ele>
        <time>2023-11-11T19:41:32Z</time>
      </trkpt>
      <trkpt lat="47.18109" lon="-1.52564">
        <ele>6</ele>
        <time>2023-11-11T19:41:41Z</time>
      </trkpt>
      <trkpt lat="47.18101" lon="-1.52522">
        <ele>5</ele>
        <time>2023-11-11T19:42:21Z</time>
      </trkpt>
      <trkpt lat="47.18099" lon="-1.52502">
        <ele>5</ele>
        <time>2023-11-11T19:42:39Z</time>
      </trkpt>
      <trkpt lat="47.18101" lon="-1.5248">
        <ele>5</ele>
        <time>2023-11-11T19:42:59Z</time>
      </trkpt>
      <trkpt lat="47.18114" lon="-1.52483">
        <ele>5</ele>
        <time>2023-11-11T19:43:17Z</time>
      </trkpt>
      <trkpt lat="47.18121" lon="-1.52475">
        <ele>5</ele>
        <time>2023-11-11T19:43:28Z</time>
      </trkpt>
      <trkpt lat="47.18119" lon="-1.5247">
        <ele>4</ele>
        <time>2023-11-11T19:43:34Z</time>
      </trkpt>
      <trkpt lat="47.1812" lon="-1.52454">
        <ele>4</ele>
        <time>2023-11-11T19:43:48Z</time>
      </trkpt>
      <trkpt lat="47.18104" lon="-1.52415">
        <ele>3</ele>
        <time>2023-11-11T19:44:30Z</time>
      </trkpt>
      <trkpt lat="47.18094" lon="-1.52417">
        <ele>3</ele>
        <time>2023-11-11T19:44:43Z</time>
      </trkpt>
      <trkpt lat="47.18084" lon="-1.52412">
        <ele>3</ele>
        <time>2023-11-11T19:44:57Z</time>
      </trkpt>
      <trkpt lat="47.18089" lon="-1.524">
        <ele>3</ele>
        <time>2023-11-11T19:45:10Z</time>
      </trkpt>
      <trkpt lat="47.18101" lon="-1.52379">
        <ele>3</ele>
        <time>2023-11-11T19:45:35Z</time>
      </trkpt>
      <trkpt lat="47.18095" lon="-1.52343">
        <ele>2</ele>
        <time>2023-11-11T19:46:08Z</time>
      </trkpt>
      <trkpt lat="47.18082" lon="-1.52286">
        <ele>3</ele>
        <time>2023-11-11T19:47:03Z</time>
      </trkpt>
      <trkpt lat="47.18079" lon="-1.52251">
        <ele>4</ele>
        <time>2023-11-11T19:47:35Z</time>
      </trkpt>
      <trkpt lat="47.18069" lon="-1.52232">
        <ele>4</ele>
        <time>2023-11-11T19:47:57Z</time>
      </trkpt>
      <trkpt lat="47.1805" lon="-1.52248">
        <ele>4</ele>
        <time>2023-11-11T19:48:26Z</time>
      </trkpt>
      <trkpt lat="47.18028" lon="-1.52257">
        <ele>4</ele>
        <time>2023-11-11T19:48:56Z</time>
      </trkpt>
      <trkpt lat="47.18024" lon="-1.52267">
        <ele>4</ele>
        <time>2023-11-11T19:49:07Z</time>
      </trkpt>
      <trkpt lat="47.17983" lon="-1.52281">
        <ele>6</ele>
        <time>2023-11-11T19:50:03Z</time>
      </trkpt>
      <trkpt lat="47.17973" lon="-1.52249">
        <ele>6</ele>
        <time>2023-11-11T19:50:35Z</time>
      </trkpt>
      <trkpt lat="47.17971" lon="-1.5224">
        <ele>6</ele>
        <time>2023-11-11T19:50:44Z</time>
      </trkpt>
      <trkpt lat="47.1796" lon="-1.52198">
        <ele>7</ele>
        <time>2023-11-11T19:51:25Z</time>
      </trkpt>
      <trkpt lat="47.17937" lon="-1.5216">
        <ele>8</ele>
        <time>2023-11-11T19:52:11Z</time>
      </trkpt>
      <trkpt lat="47.17917" lon="-1.52122">
        <ele>7</ele>
        <time>2023-11-11T19:52:54Z</time>
      </trkpt>
      <trkpt lat="47.17894" lon="-1.52112">
        <ele>7</ele>
        <time>2023-11-11T19:53:26Z</time>
      </trkpt>
      <trkpt lat="47.17887" lon="-1.52106">
        <ele>7</ele>
        <time>2023-11-11T19:53:37Z</time>
      </trkpt>
      <trkpt lat="47.17865" lon="-1.52117">
        <ele>7</ele>
        <time>2023-11-11T19:54:08Z</time>
      </trkpt>
      <trkpt lat="47.17768" lon="-1.52201">
        <ele>9</ele>
        <time>2023-11-11T19:56:38Z</time>
      </trkpt>
      <trkpt lat="47.17723" lon="-1.52218">
        <ele>9</ele>
        <time>2023-11-11T19:57:40Z</time>
      </trkpt>
      <trkpt lat="47.17709" lon="-1.52189">
        <ele>9</ele>
        <time>2023-11-11T19:58:13Z</time>
      </trkpt>
      <trkpt lat="47.17695" lon="-1.52162">
        <ele>9</ele>
        <time>2023-11-11T19:58:43Z</time>
      </trkpt>
      <trkpt lat="47.17681" lon="-1.52154">
        <ele>9</ele>
        <time>2023-11-11T19:59:03Z</time>
      </trkpt>
      <trkpt lat="47.17673" lon="-1.5216">
        <ele>9</ele>
        <time>2023-11-11T19:59:15Z</time>
      </trkpt>
      <trkpt lat="47.17673" lon="-1.52167">
        <ele>9</ele>
        <time>2023-11-11T19:59:22Z</time>
      </trkpt>
      <trkpt lat="47.17661" lon="-1.52172">
        <ele>9</ele>
        <time>2023-11-11T19:59:38Z</time>
      </trkpt>
      <trkpt lat="47.17647" lon="-1.52173">
        <ele>9</ele>
        <time>2023-11-11T19:59:57Z</time>
      </trkpt>
      <trkpt lat="47.17629" lon="-1.52175">
        <ele>9</ele>
        <time>2023-11-11T20:00:21Z</time>
      </trkpt>
      <trkpt lat="47.17605" lon="-1.52166">
        <ele>10</ele>
        <time>2023-11-11T20:00:54Z</time>
      </trkpt>
      <trkpt lat="47.17584" lon="-1.5216">
        <ele>10</ele>
        <time>2023-11-11T20:01:23Z</time>
      </trkpt>
      <trkpt lat="47.17552" lon="-1.52168">
        <ele>11</ele>
        <time>2023-11-11T20:02:06Z</time>
      </trkpt>
      <trkpt lat="47.17518" lon="-1.52153">
        <ele>14</ele>
        <time>2023-11-11T20:02:53Z</time>
      </trkpt>
      <trkpt lat="47.17472" lon="-1.52165">
        <ele>17</ele>
        <time>2023-11-11T20:03:56Z</time>
      </trkpt>
      <trkpt lat="47.17435" lon="-1.5217">
        <ele>20</ele>
        <time>2023-11-11T20:04:45Z</time>
      </trkpt>
      <trkpt lat="47.17426" lon="-1.52181">
        <ele>21</ele>
        <time>2023-11-11T20:05:01Z</time>
      </trkpt>
      <trkpt lat="47.17426" lon="-1.52206">
        <ele>20</ele>
        <time>2023-11-11T20:05:24Z</time>
      </trkpt>
      <trkpt lat="47.17408" lon="-1.52234">
        <ele>20</ele>
        <time>2023-11-11T20:05:59Z</time>
      </trkpt>
      <trkpt lat="47.1738" lon="-1.52259">
        <ele>19</ele>
        <time>2023-11-11T20:06:42Z</time>
      </trkpt>
      <trkpt lat="47.17363" lon="-1.52281">
        <ele>18</ele>
        <time>2023-11-11T20:07:13Z</time>
      </trkpt>
      <trkpt lat="47.17346" lon="-1.52295">
        <ele>17</ele>
        <time>2023-11-11T20:07:39Z</time>
      </trkpt>
      <trkpt lat="47.17337" lon="-1.52299">
        <ele>16</ele>
        <time>2023-11-11T20:07:51Z</time>
      </trkpt>
      <trkpt lat="47.17324" lon="-1.52294">
        <ele>16</ele>
        <time>2023-11-11T20:08:09Z</time>
      </trkpt>
      <trkpt lat="47.1731" lon="-1.52287">
        <ele>16</ele>
        <time>2023-11-11T20:08:29Z</time>
      </trkpt>
      <trkpt lat="47.173" lon="-1.52278">
        <ele>15</ele>
        <time>2023-11-11T20:08:44Z</time>
      </trkpt>
      <trkpt lat="47.17293" lon="-1.52283">
        <ele>15</ele>
        <time>2023-11-11T20:08:55Z</time>
      </trkpt>
      <trkpt lat="47.17289" lon="-1.52285">
        <ele>15</ele>
        <time>2023-11-11T20:09:00Z</time>
      </trkpt>
      <trkpt lat="47.17301" lon="-1.52275">
        <ele>15</ele>
        <time>2023-11-11T20:09:19Z</time>
      </trkpt>
      <trkpt lat="47.17269" lon="-1.52237">
        <ele>14</ele>
        <time>2023-11-11T20:10:14Z</time>
      </trkpt>
      <trkpt lat="47.17248" lon="-1.5221">
        <ele>14</ele>
        <time>2023-11-11T20:10:51Z</time>
      </trkpt>
      <trkpt lat="47.17216" lon="-1.52172">
        <ele>15</ele>
        <time>2023-11-11T20:11:46Z</time>
      </trkpt>
      <trkpt lat="47.17194" lon="-1.52141">
        <ele>15</ele>
        <time>2023-11-11T20:12:26Z</time>
      </trkpt>
      <trkpt lat="47.17156" lon="-1.52125">
        <ele>15</ele>
        <time>2023-11-11T20:13:19Z</time>
      </trkpt>
      <trkpt lat="47.17138" lon="-1.52109">
        <ele>15</ele>
        <time>2023-11-11T20:13:47Z</time>
      </trkpt>
      <trkpt lat="47.17103" lon="-1.52105">
        <ele>14</ele>
        <time>2023-11-11T20:14:34Z</time>
      </trkpt>
      <trkpt lat="47.17081" lon="-1.52094">
        <ele>13</ele>
        <time>2023-11-11T20:15:05Z</time>
      </trkpt>
      <trkpt lat="47.17048" lon="-1.52076">
        <ele>12</ele>
        <time>2023-11-11T20:15:52Z</time>
      </trkpt>
      <trkpt lat="47.17026" lon="-1.52062">
        <ele>11</ele>
        <time>2023-11-11T20:16:24Z</time>
      </trkpt>
      <trkpt lat="47.16998" lon="-1.52059">
        <ele>9</ele>
        <time>2023-11-11T20:17:02Z</time>
      </trkpt>
      <trkpt lat="47.16976" lon="-1.52038">
        <ele>9</ele>
        <time>2023-11-11T20:17:37Z</time>
      </trkpt>
      <trkpt lat="47.16955" lon="-1.52032">
        <ele>9</ele>
        <time>2023-11-11T20:18:05Z</time>
      </trkpt>
      <trkpt lat="47.16942" lon="-1.52064">
        <ele>9</ele>
        <time>2023-11-11T20:18:39Z</time>
      </trkpt>
      <trkpt lat="47.16937" lon="-1.52084">
        <ele>9</ele>
        <time>2023-11-11T20:18:58Z</time>
      </trkpt>
      <trkpt lat="47.16936" lon="-1.52127">
        <ele>9</ele>
        <time>2023-11-11T20:19:37Z</time>
      </trkpt>
      <trkpt lat="47.16939" lon="-1.52194">
        <ele>10</ele>
        <time>2023-11-11T20:20:38Z</time>
      </trkpt>
      <trkpt lat="47.16943" lon="-1.52262">
        <ele>13</ele>
        <time>2023-11-11T20:21:40Z</time>
      </trkpt>
      <trkpt lat="47.16941" lon="-1.5231">
        <ele>14</ele>
        <time>2023-11-11T20:22:24Z</time>
      </trkpt>
      <trkpt lat="47.16932" lon="-1.52383">
        <ele>15</ele>
        <time>2023-11-11T20:23:31Z</time>
      </trkpt>
      <trkpt lat="47.16937" lon="-1.52447">
        <ele>17</ele>
        <time>2023-11-11T20:24:29Z</time>
      </trkpt>
      <trkpt lat="47.16914" lon="-1.52461">
        <ele>18</ele>
        <time>2023-11-11T20:25:03Z</time>
      </trkpt>
      <trkpt lat="47.16885" lon="-1.52493">
        <ele>19</ele>
        <time>2023-11-11T20:25:51Z</time>
      </trkpt>
      <trkpt lat="47.16834" lon="-1.52522">
        <ele>19</ele>
        <time>2023-11-11T20:27:04Z</time>
      </trkpt>
      <trkpt lat="47.16824" lon="-1.52528">
        <ele>19</ele>
        <time>2023-11-11T20:27:18Z</time>
      </trkpt>
      <trkpt lat="47.1679" lon="-1.52552">
        <ele>19</ele>
        <time>2023-11-11T20:28:09Z</time>
      </trkpt>
      <trkpt lat="47.16778" lon="-1.52571">
        <ele>20</ele>
        <time>2023-11-11T20:28:32Z</time>
      </trkpt>
      <trkpt lat="47.16759" lon="-1.52577">
        <ele>21</ele>
        <time>2023-11-11T20:28:58Z</time>
      </trkpt>
      <trkpt lat="47.16747" lon="-1.52578">
        <ele>21</ele>
        <time>2023-11-11T20:29:14Z</time>
      </trkpt>
      <trkpt lat="47.16706" lon="-1.52574">
        <ele>19</ele>
        <time>2023-11-11T20:30:09Z</time>
      </trkpt>
      <trkpt lat="47.16686" lon="-1.52572">
        <ele>18</ele>
        <time>2023-11-11T20:30:36Z</time>
      </trkpt>
      <trkpt lat="47.16663" lon="-1.52534">
        <ele>17</ele>
        <time>2023-11-11T20:31:22Z</time>
      </trkpt>
      <trkpt lat="47.1664" lon="-1.52467">
        <ele>17</ele>
        <time>2023-11-11T20:32:30Z</time>
      </trkpt>
      <trkpt lat="47.16627" lon="-1.52476">
        <ele>17</ele>
        <time>2023-11-11T20:32:49Z</time>
      </trkpt>
      <trkpt lat="47.16604" lon="-1.52458">
        <ele>17</ele>
        <time>2023-11-11T20:33:24Z</time>
      </trkpt>
      <trkpt lat="47.16579" lon="-1.52447">
        <ele>17</ele>
        <time>2023-11-11T20:33:59Z</time>
      </trkpt>
      <trkpt lat="47.16563" lon="-1.52432">
        <ele>16</ele>
        <time>2023-11-11T20:34:24Z</time>
      </trkpt>
      <trkpt lat="47.1655" lon="-1.52438">
        <ele>17</ele>
        <time>2023-11-11T20:34:42Z</time>
      </trkpt>
      <trkpt lat="47.16543" lon="-1.52462">
        <ele>19</ele>
        <time>2023-11-11T20:35:06Z</time>
      </trkpt>
      <trkpt lat="47.16533" lon="-1.52477">
        <ele>20</ele>
        <time>2023-11-11T20:35:25Z</time>
      </trkpt>
      <trkpt lat="47.16529" lon="-1.52489">
        <ele>21</ele>
        <time>2023-11-11T20:35:37Z</time>
      </trkpt>
      <trkpt lat="47.1652" lon="-1.52542">
        <ele>23</ele>
        <time>2023-11-11T20:36:27Z</time>
      </trkpt>
      <trkpt lat="47.16489" lon="-1.52622">
        <ele>23</ele>
        <time>2023-11-11T20:37:50Z</time>
      </trkpt>
      <trkpt lat="47.16439" lon="-1.52649">
        <ele>23</ele>
        <time>2023-11-11T20:39:01Z</time>
      </trkpt>
      <trkpt lat="47.16398" lon="-1.52684">
        <ele>23</ele>
        <time>2023-11-11T20:40:05Z</time>
      </trkpt>
      <trkpt lat="47.16351" lon="-1.52728">
        <ele>23</ele>
        <time>2023-11-11T20:41:19Z</time>
      </trkpt>
      <trkpt lat="47.16355" lon="-1.52751">
        <ele>23</ele>
        <time>2023-11-11T20:41:41Z</time>
      </trkpt>
      <trkpt lat="47.16362" lon="-1.52784">
        <ele>24</ele>
        <time>2023-11-11T20:42:12Z</time>
      </trkpt>
      <trkpt lat="47.16361" lon="-1.52833">
        <ele>26</ele>
        <time>2023-11-11T20:42:56Z</time>
      </trkpt>
      <trkpt lat="47.16377" lon="-1.5284">
        <ele>26</ele>
        <time>2023-11-11T20:43:19Z</time>
      </trkpt>
      <trkpt lat="47.16465" lon="-1.52963">
        <ele>26</ele>
        <time>2023-11-11T20:46:01Z</time>
      </trkpt>
      <trkpt lat="47.16505" lon="-1.52999">
        <ele>26</ele>
        <time>2023-11-11T20:47:03Z</time>
      </trkpt>
      <trkpt lat="47.16552" lon="-1.53034">
        <ele>26</ele>
        <time>2023-11-11T20:48:14Z</time>
      </trkpt>
      <trkpt lat="47.16602" lon="-1.53039">
        <ele>26</ele>
        <time>2023-11-11T20:49:20Z</time>
      </trkpt>
      <trkpt lat="47.16628" lon="-1.53058">
        <ele>26</ele>
        <time>2023-11-11T20:49:59Z</time>
      </trkpt>
      <trkpt lat="47.16666" lon="-1.53082">
        <ele>26</ele>
        <time>2023-11-11T20:50:54Z</time>
      </trkpt>
      <trkpt lat="47.16696" lon="-1.53089">
        <ele>26</ele>
        <time>2023-11-11T20:51:35Z</time>
      </trkpt>
      <trkpt lat="47.16727" lon="-1.53112">
        <ele>27</ele>
        <time>2023-11-11T20:52:21Z</time>
      </trkpt>
      <trkpt lat="47.16753" lon="-1.53134">
        <ele>28</ele>
        <time>2023-11-11T20:53:01Z</time>
      </trkpt>
      <trkpt lat="47.16803" lon="-1.53208">
        <ele>30</ele>
        <time>2023-11-11T20:54:36Z</time>
      </trkpt>
      <trkpt lat="47.16857" lon="-1.53259">
        <ele>31</ele>
        <time>2023-11-11T20:56:02Z</time>
      </trkpt>
      <trkpt lat="47.16921" lon="-1.53327">
        <ele>33</ele>
        <time>2023-11-11T20:57:47Z</time>
      </trkpt>
      <trkpt lat="47.16972" lon="-1.53372">
        <ele>33</ele>
        <time>2023-11-11T20:59:06Z</time>
      </trkpt>
      <trkpt lat="47.17013" lon="-1.53383">
        <ele>33</ele>
        <time>2023-11-11T21:00:02Z</time>
      </trkpt>
      <trkpt lat="47.17068" lon="-1.53367">
        <ele>33</ele>
        <time>2023-11-11T21:01:17Z</time>
      </trkpt>
      <trkpt lat="47.17138" lon="-1.53366">
        <ele>32</ele>
        <time>2023-11-11T21:02:50Z</time>
      </trkpt>
      <trkpt lat="47.1716" lon="-1.53385">
        <ele>32</ele>
        <time>2023-11-11T21:03:24Z</time>
      </trkpt>
      <trkpt lat="47.17205" lon="-1.53414">
        <ele>32</ele>
        <time>2023-11-11T21:04:30Z</time>
      </trkpt>
      <trkpt lat="47.17252" lon="-1.53452">
        <ele>31</ele>
        <time>2023-11-11T21:05:41Z</time>
      </trkpt>
      <trkpt lat="47.17278" lon="-1.53515">
        <ele>30</ele>
        <time>2023-11-11T21:06:48Z</time>
      </trkpt>
      <trkpt lat="47.17313" lon="-1.53592">
        <ele>28</ele>
        <time>2023-11-11T21:08:12Z</time>
      </trkpt>
      <trkpt lat="47.17337" lon="-1.53635">
        <ele>28</ele>
        <time>2023-11-11T21:09:03Z</time>
      </trkpt>
      <trkpt lat="47.17372" lon="-1.53585">
        <ele>28</ele>
        <time>2023-11-11T21:10:08Z</time>
      </trkpt>
      <trkpt lat="47.17395" lon="-1.5355">
        <ele>27</ele>
        <time>2023-11-11T21:10:52Z</time>
      </trkpt>
      <trkpt lat="47.17413" lon="-1.53536">
        <ele>26</ele>
        <time>2023-11-11T21:11:19Z</time>
      </trkpt>
      <trkpt lat="47.17413" lon="-1.53479">
        <ele>26</ele>
        <time>2023-11-11T21:12:11Z</time>
      </trkpt>
      <trkpt lat="47.17399" lon="-1.53419">
        <ele>27</ele>
        <time>2023-11-11T21:13:08Z</time>
      </trkpt>
      <trkpt lat="47.17403" lon="-1.53405">
        <ele>27</ele>
        <time>2023-11-11T21:13:22Z</time>
      </trkpt>
      <trkpt lat="47.17403" lon="-1.53362">
        <ele>28</ele>
        <time>2023-11-11T21:14:01Z</time>
      </trkpt>
      <trkpt lat="47.17407" lon="-1.53323">
        <ele>28</ele>
        <time>2023-11-11T21:14:37Z</time>
      </trkpt>
      <trkpt lat="47.17401" lon="-1.53307">
        <ele>28</ele>
        <time>2023-11-11T21:14:54Z</time>
      </trkpt>
      <trkpt lat="47.17407" lon="-1.53267">
        <ele>27</ele>
        <time>2023-11-11T21:15:31Z</time>
      </trkpt>
      <trkpt lat="47.17425" lon="-1.53229">
        <ele>26</ele>
        <time>2023-11-11T21:16:13Z</time>
      </trkpt>
      <trkpt lat="47.17438" lon="-1.53194">
        <ele>25</ele>
        <time>2023-11-11T21:16:49Z</time>
      </trkpt>
      <trkpt lat="47.17463" lon="-1.5318">
        <ele>24</ele>
        <time>2023-11-11T21:17:25Z</time>
      </trkpt>
      <trkpt lat="47.1748" lon="-1.53169">
        <ele>24</ele>
        <time>2023-11-11T21:17:49Z</time>
      </trkpt>
      <trkpt lat="47.17507" lon="-1.53146">
        <ele>23</ele>
        <time>2023-11-11T21:18:31Z</time>
      </trkpt>
      <trkpt lat="47.17525" lon="-1.53127">
        <ele>23</ele>
        <time>2023-11-11T21:19:01Z</time>
      </trkpt>
      <trkpt lat="47.17546" lon="-1.53116">
        <ele>23</ele>
        <time>2023-11-11T21:19:30Z</time>
      </trkpt>
      <trkpt lat="47.17566" lon="-1.53102">
        <ele>23</ele>
        <time>2023-11-11T21:20:00Z</time>
      </trkpt>
      <trkpt lat="47.17601" lon="-1.53087">
        <ele>23</ele>
        <time>2023-11-11T21:20:49Z</time>
      </trkpt>
      <trkpt lat="47.17636" lon="-1.53068">
        <ele>23</ele>
        <time>2023-11-11T21:21:38Z</time>
      </trkpt>
      <trkpt lat="47.17661" lon="-1.53071">
        <ele>23</ele>
        <time>2023-11-11T21:22:12Z</time>
      </trkpt>
      <trkpt lat="47.17682" lon="-1.53062">
        <ele>23</ele>
        <time>2023-11-11T21:22:41Z</time>
      </trkpt>
      <trkpt lat="47.17693" lon="-1.53042">
        <ele>23</ele>
        <time>2023-11-11T21:23:04Z</time>
      </trkpt>
      <trkpt lat="47.17691" lon="-1.53025">
        <ele>24</ele>
        <time>2023-11-11T21:23:20Z</time>
      </trkpt>
      <trkpt lat="47.17694" lon="-1.53014">
        <ele>24</ele>
        <time>2023-11-11T21:23:31Z</time>
      </trkpt>
      <trkpt lat="47.1772" lon="-1.53002">
        <ele>23</ele>
        <time>2023-11-11T21:24:07Z</time>
      </trkpt>
      <trkpt lat="47.17764" lon="-1.52971">
        <ele>21</ele>
        <time>2023-11-11T21:25:12Z</time>
      </trkpt>
      <trkpt lat="47.17794" lon="-1.52967">
        <ele>21</ele>
        <time>2023-11-11T21:25:52Z</time>
      </trkpt>
      <trkpt lat="47.17808" lon="-1.52962">
        <ele>21</ele>
        <time>2023-11-11T21:26:12Z</time>
      </trkpt>
      <trkpt lat="47.17842" lon="-1.52929">
        <ele>19</ele>
        <time>2023-11-11T21:27:06Z</time>
      </trkpt>
      <trkpt lat="47.17861" lon="-1.52907">
        <ele>18</ele>
        <time>2023-11-11T21:27:38Z</time>
      </trkpt>
      <trkpt lat="47.17887" lon="-1.5287">
        <ele>16</ele>
        <time>2023-11-11T21:28:26Z</time>
      </trkpt>
      <trkpt lat="47.17905" lon="-1.52839">
        <ele>15</ele>
        <time>2023-11-11T21:29:03Z</time>
      </trkpt>
      <trkpt lat="47.17932" lon="-1.52812">
        <ele>14</ele>
        <time>2023-11-11T21:29:47Z</time>
      </trkpt>
      <trkpt lat="47.17937" lon="-1.52792">
        <ele>14</ele>
        <time>2023-11-11T21:30:06Z</time>
      </trkpt>
      <trkpt lat="47.17948" lon="-1.52765">
        <ele>14</ele>
        <time>2023-11-11T21:30:35Z</time>
      </trkpt>
      <trkpt lat="47.17979" lon="-1.52705">
        <ele>12</ele>
        <time>2023-11-11T21:31:43Z</time>
      </trkpt>
      <trkpt lat="47.18006" lon="-1.52677">
        <ele>10</ele>
        <time>2023-11-11T21:32:27Z</time>
      </trkpt>
      <trkpt lat="47.18034" lon="-1.52657">
        <ele>9</ele>
        <time>2023-11-11T21:33:09Z</time>
      </trkpt>
      <trkpt lat="47.18053" lon="-1.52674">
        <ele>8</ele>
        <time>2023-11-11T21:33:39Z</time>
      </trkpt>
      <trkpt lat="47.18064" lon="-1.52676">
        <ele>8</ele>
        <time>2023-11-11T21:33:53Z</time>
      </trkpt>
      <trkpt lat="47.18074" lon="-1.52681">
        <ele>8</ele>
        <time>2023-11-11T21:34:07Z</time>
      </trkpt>
      <trkpt lat="47.18084" lon="-1.52687">
        <ele>7</ele>
        <time>2023-11-11T21:34:22Z</time>
      </trkpt>
      <trkpt lat="47.18092" lon="-1.52693">
        <ele>7</ele>
        <time>2023-11-11T21:34:34Z</time>
      </trkpt>
      <trkpt lat="47.18099" lon="-1.52708">
        <ele>8</ele>
        <time>2023-11-11T21:34:50Z</time>
      </trkpt>
      <trkpt lat="47.18135" lon="-1.52764">
        <ele>8</ele>
        <time>2023-11-11T21:36:00Z</time>
      </trkpt>
      <trkpt lat="47.1816" lon="-1.52783">
        <ele>9</ele>
        <time>2023-11-11T21:36:38Z</time>
      </trkpt>
      <trkpt lat="47.18201" lon="-1.52894">
        <ele>8</ele>
        <time>2023-11-11T21:38:32Z</time>
      </trkpt>
    </trkseg>
  </trk>
</gpx>